Time;durP1;ratioP1;P1;durP2;ratioP2;P2;SDS_P1;SDS_P2;PMS_P1;PMS_P2;Temp;Humidity;BMP_temperature;BMP_pressure;BME280_temperature;BME280_humidity;BME280_pressure;Samples;Min_cycle;Max_cycle;Signal;HPM_P1;HPM_P2
2023/02/06 00:00:43;;;;;;;183.00;82.70;;;;;;;-4.52;81.94;102642.83;106630;1276;24198;-61
2023/02/06 00:03:34;;;;;;;180.90;82.30;;;;;;;-4.53;82.02;102639.27;106522;1275;22656;-62
2023/02/06 00:06:05;;;;;;;202.60;88.90;;;;;;;-4.56;81.79;102638.20;106539;1276;25591;-61
2023/02/06 00:08:36;;;;;;;206.30;86.40;;;;;;;-4.61;81.73;102637.27;106589;1272;25505;-61
2023/02/06 00:11:11;;;;;;;194.00;83.50;;;;;;;-4.65;81.81;102641.08;106452;1269;22842;-60
2023/02/06 00:13:42;;;;;;;211.20;91.30;;;;;;;-4.67;81.92;102635.11;106756;1276;25497;-61
2023/02/06 00:16:20;;;;;;;205.90;87.60;;;;;;;-4.69;82.26;102631.93;106604;1276;22712;-61
2023/02/06 00:18:52;;;;;;;208.90;89.40;;;;;;;-4.67;82.53;102631.23;106722;1265;22562;-60
2023/02/06 00:21:24;;;;;;;198.40;82.70;;;;;;;-4.64;82.73;102626.69;106359;1272;248995;-62
2023/02/06 00:23:59;;;;;;;217.30;92.00;;;;;;;-4.62;82.74;102622.13;106878;1276;24248;-60
2023/02/06 00:26:31;;;;;;;218.80;92.90;;;;;;;-4.61;82.83;102620.06;106768;1270;22511;-61
2023/02/06 00:29:02;;;;;;;211.40;93.80;;;;;;;-4.60;82.99;102617.38;106630;1265;22601;-60
2023/02/06 00:31:33;;;;;;;208.60;88.90;;;;;;;-4.59;82.94;102609.34;106461;1269;25652;-61
2023/02/06 00:34:04;;;;;;;199.30;88.30;;;;;;;-4.56;83.00;102608.45;106529;1276;26849;-61
2023/02/06 00:36:35;;;;;;;230.30;102.20;;;;;;;-4.53;83.09;102613.10;106567;1258;22836;-61
2023/02/06 00:39:06;;;;;;;223.10;100.10;;;;;;;-4.53;82.88;102615.14;106599;1253;22885;-61
2023/02/06 00:41:37;;;;;;;206.80;93.20;;;;;;;-4.54;82.71;102616.27;106618;1276;24557;-63
2023/02/06 00:44:08;;;;;;;211.90;94.50;;;;;;;-4.55;82.79;102616.05;106636;1262;25504;-61
2023/02/06 00:46:39;;;;;;;221.20;94.30;;;;;;;-4.56;82.69;102614.27;106635;1276;23065;-61
2023/02/06 00:49:10;;;;;;;205.50;88.00;;;;;;;-4.57;82.78;102623.21;106511;1272;22620;-61
2023/02/06 00:51:41;;;;;;;208.60;86.60;;;;;;;-4.60;82.59;102631.55;106537;1272;22661;-61
2023/02/06 00:54:12;;;;;;;194.50;88.20;;;;;;;-4.61;82.82;102640.75;106516;1256;24256;-63
2023/02/06 00:56:43;;;;;;;197.90;88.10;;;;;;;-4.61;82.99;102636.81;106536;1276;24183;-60
2023/02/06 00:59:14;;;;;;;180.80;82.60;;;;;;;-4.61;82.98;102641.94;106571;1265;22581;-62
2023/02/06 01:01:45;;;;;;;183.90;81.00;;;;;;;-4.60;83.16;102644.55;106583;1262;22609;-60
2023/02/06 01:04:16;;;;;;;185.00;82.10;;;;;;;-4.60;83.17;102640.92;106588;1253;22932;-60
2023/02/06 01:06:47;;;;;;;173.00;74.30;;;;;;;-4.60;83.41;102634.16;106521;1265;22556;-61
2023/02/06 01:09:18;;;;;;;169.40;73.90;;;;;;;-4.59;83.11;102629.95;106528;1262;22590;-60
2023/02/06 01:11:49;;;;;;;172.00;73.10;;;;;;;-4.61;83.10;102629.85;106470;1276;23156;-61
2023/02/06 01:14:20;;;;;;;174.60;78.00;;;;;;;-4.62;83.21;102636.14;106535;1276;22817;-60
2023/02/06 01:16:51;;;;;;;173.80;76.80;;;;;;;-4.63;83.45;102632.52;106526;1274;22686;-59
2023/02/06 01:19:21;;;;;;;157.40;71.70;;;;;;;-4.62;83.50;102627.42;106609;1276;22715;-60
2023/02/06 01:21:52;;;;;;;160.60;68.40;;;;;;;-4.62;83.20;102626.94;106578;1276;25502;-61
2023/02/06 01:24:23;;;;;;;164.60;68.30;;;;;;;-4.63;83.41;102627.29;106498;1268;22679;-59
2023/02/06 01:26:54;;;;;;;153.10;68.20;;;;;;;-4.61;83.68;102616.33;106420;1276;25528;-61
2023/02/06 01:29:25;;;;;;;161.60;69.20;;;;;;;-4.57;83.76;102602.33;106536;1271;22695;-62
2023/02/06 01:31:56;;;;;;;149.10;70.20;;;;;;;-4.54;83.76;102596.97;106553;1265;22667;-62
2023/02/06 01:34:27;;;;;;;154.30;67.90;;;;;;;-4.52;83.56;102588.46;106611;1276;22718;-62
2023/02/06 01:36:58;;;;;;;158.80;71.50;;;;;;;-4.54;83.21;102587.91;106520;1274;22564;-60
2023/02/06 01:39:29;;;;;;;155.90;66.40;;;;;;;-4.57;83.29;102590.73;106497;1276;23161;-62
2023/02/06 01:42:00;;;;;;;140.60;62.40;;;;;;;-4.57;83.42;102591.90;106567;1275;22577;-61
2023/02/06 01:44:33;;;;;;;141.90;62.10;;;;;;;-4.57;83.69;102582.85;106791;1273;24228;-62
2023/02/06 01:47:04;;;;;;;133.40;60.90;;;;;;;-4.54;83.69;102577.84;106606;1276;22558;-61
2023/02/06 01:49:41;;;;;;;130.50;61.20;;;;;;;-4.55;83.63;102580.70;106719;1269;22800;-62
2023/02/06 01:52:16;;;;;;;116.50;55.60;;;;;;;-4.56;83.50;102584.39;106606;1271;24257;-60
2023/02/06 01:54:53;;;;;;;122.20;56.10;;;;;;;-4.58;83.32;102584.30;106711;1262;24228;-62
2023/02/06 01:57:25;;;;;;;127.80;53.50;;;;;;;-4.63;83.10;102591.41;106506;1256;24237;-60
2023/02/06 02:00:02;;;;;;;125.10;55.00;;;;;;;-4.66;83.31;102589.86;106490;1274;25471;-60
2023/02/06 02:02:34;;;;;;;119.40;51.40;;;;;;;-4.70;83.00;102592.94;106564;1276;22676;-61
2023/02/06 02:05:09;;;;;;;122.60;52.80;;;;;;;-4.71;83.05;102599.13;106626;1273;22659;-60
2023/02/06 02:07:47;;;;;;;113.80;50.40;;;;;;;-4.73;83.25;102600.63;106682;1276;22809;-63
2023/02/06 02:10:18;;;;;;;108.70;47.90;;;;;;;-4.74;83.54;102600.98;106629;1275;22621;-60
2023/02/06 02:12:49;;;;;;;115.50;46.00;;;;;;;-4.74;83.45;102599.35;106454;1269;22682;-59
2023/02/06 02:15:21;;;;;;;114.20;48.50;;;;;;;-4.76;83.42;102596.56;106506;1262;25645;-58
2023/02/06 02:18:01;;;;;;;106.90;48.20;;;;;;;-4.76;83.78;102593.80;106690;1276;23160;-60
2023/02/06 02:21:02;;;;;;;117.50;47.90;;;;;;;-4.74;83.79;102588.39;106823;1276;26771;-61
2023/02/06 02:23:45;;;;;;;109.40;46.80;;;;;;;-4.73;83.81;102600.19;106568;1276;22669;-60
2023/02/06 02:26:43;;;;;;;109.20;49.20;;;;;;;-4.75;83.58;102597.42;106676;1263;22599;-60
2023/02/06 02:29:50;;;;;;;114.70;49.70;;;;;;;-4.78;83.59;102586.39;106551;1262;22710;-62
2023/02/06 02:32:57;;;;;;;128.40;51.70;;;;;;;-4.79;83.86;102585.74;106055;1275;22767;-62
2023/02/06 02:35:37;;;;;;;114.00;50.10;;;;;;;-4.78;83.88;102580.17;106072;1276;22783;-62
2023/02/06 02:38:19;;;;;;;122.20;54.10;;;;;;;-4.79;83.82;102581.45;106219;1279;24270;-59
2023/02/06 02:40:55;;;;;;;137.90;56.30;;;;;;;-4.79;83.89;102575.36;106224;1262;23221;-58
2023/02/06 02:43:34;;;;;;;130.60;55.50;;;;;;;-4.77;84.19;102561.45;106175;1283;25530;-61
2023/02/06 02:46:13;;;;;;;146.40;60.50;;;;;;;-4.75;84.28;102559.37;106097;1283;24263;-58
2023/02/06 02:48:47;;;;;;;153.40;62.90;;;;;;;-4.72;84.46;102557.80;106162;1283;22784;-60
2023/02/06 02:51:19;;;;;;;141.90;58.50;;;;;;;-4.71;84.46;102559.30;106114;1283;22607;-59
2023/02/06 02:53:49;;;;;;;138.30;58.60;;;;;;;-4.70;84.60;102557.80;106225;1280;23174;-61
2023/02/06 02:56:22;;;;;;;141.20;59.60;;;;;;;-4.69;84.56;102557.83;106042;1283;22711;-59
2023/02/06 02:58:57;;;;;;;132.20;56.20;;;;;;;-4.69;84.65;102551.02;106022;1277;25691;-60
2023/02/06 03:01:32;;;;;;;138.40;55.90;;;;;;;-4.67;84.75;102550.01;106130;1276;22802;-60
2023/02/06 03:04:08;;;;;;;141.50;58.40;;;;;;;-4.65;84.88;102544.88;106105;1280;22664;-59
2023/02/06 03:06:58;;;;;;;115.80;52.30;;;;;;;-4.61;84.79;102538.50;106021;1270;23242;-61
2023/02/06 03:09:39;;;;;;;119.80;50.10;;;;;;;-4.60;84.88;102526.52;106173;1276;24194;-61
2023/02/06 03:12:17;;;;;;;128.80;52.40;;;;;;;-4.61;84.78;102524.84;106680;1269;22621;-60
2023/02/06 03:14:55;;;;;;;125.60;51.80;;;;;;;-4.60;84.83;102532.52;106739;1276;22879;-60
2023/02/06 03:17:35;;;;;;;120.20;50.20;;;;;;;-4.57;84.91;102526.64;106685;1275;22604;-58
2023/02/06 03:20:08;;;;;;;127.90;50.90;;;;;;;-4.55;84.90;102521.44;106603;1268;22558;-61
2023/02/06 03:22:42;;;;;;;115.60;52.20;;;;;;;-4.55;84.79;102527.34;106710;1276;22889;-61
2023/02/06 03:25:18;;;;;;;126.00;52.40;;;;;;;-4.56;84.77;102529.82;106666;1272;22639;-61
2023/02/06 03:27:50;;;;;;;122.30;51.90;;;;;;;-4.55;84.92;102527.98;106856;1263;22705;-62
2023/02/06 03:30:24;;;;;;;122.80;52.00;;;;;;;-4.53;84.86;102525.96;106722;1276;22558;-60
2023/02/06 03:32:59;;;;;;;133.40;56.60;;;;;;;-4.53;84.96;102529.33;106624;1276;22677;-61
2023/02/06 03:35:35;;;;;;;127.20;53.40;;;;;;;-4.52;84.91;102530.99;106593;1275;26406;-62
2023/02/06 03:38:08;;;;;;;123.20;53.20;;;;;;;-4.52;84.83;102541.09;106557;1274;22652;-60
2023/02/06 03:40:43;;;;;;;123.70;52.70;;;;;;;-4.53;84.85;102546.91;106614;1275;22583;-59
2023/02/06 03:43:17;;;;;;;133.00;56.20;;;;;;;-4.55;84.76;102551.42;106816;1270;25331;-61
2023/02/06 03:45:52;;;;;;;135.10;56.50;;;;;;;-4.57;84.62;102540.48;106743;1276;25455;-61
2023/02/06 03:48:28;;;;;;;122.90;52.80;;;;;;;-4.59;84.73;102542.29;106565;1270;24170;-60
2023/02/06 03:51:02;;;;;;;124.30;52.50;;;;;;;-4.58;84.87;102541.23;106493;1276;22574;-60
2023/02/06 03:53:35;;;;;;;127.90;54.20;;;;;;;-4.58;84.67;102536.88;106719;1274;22589;-59
2023/02/06 03:56:10;;;;;;;118.60;50.20;;;;;;;-4.60;84.61;102539.45;106679;1264;24224;-59
2023/02/06 03:58:41;;;;;;;126.30;52.50;;;;;;;-4.61;84.57;102540.33;106637;1276;22582;-59
2023/02/06 04:01:14;;;;;;;122.40;50.70;;;;;;;-4.61;84.68;102541.86;106578;1266;22669;-59
2023/02/06 04:03:45;;;;;;;113.30;48.40;;;;;;;-4.60;84.91;102539.43;106875;1274;22714;-62
2023/02/06 04:06:15;;;;;;;125.50;51.40;;;;;;;-4.59;84.93;102537.61;106615;1253;26094;-60
2023/02/06 04:08:46;;;;;;;123.70;52.60;;;;;;;-4.59;85.11;102531.29;106489;1275;22592;-61
2023/02/06 04:11:18;;;;;;;166.10;73.20;;;;;;;-4.61;84.93;102524.42;106681;1256;24292;-59
2023/02/06 04:13:48;;;;;;;183.70;78.70;;;;;;;-4.64;84.92;102524.69;106561;1276;22670;-59
2023/02/06 04:16:19;;;;;;;175.60;77.70;;;;;;;-4.64;85.15;102533.41;106497;1275;23990;-61
2023/02/06 04:18:50;;;;;;;154.60;71.70;;;;;;;-4.63;85.28;102526.39;106481;1276;25604;-59
2023/02/06 04:21:21;;;;;;;162.90;70.20;;;;;;;-4.62;85.41;102532.58;106555;1269;24254;-59
2023/02/06 04:23:52;;;;;;;147.00;64.30;;;;;;;-4.62;85.16;102534.04;106437;1276;24217;-60
2023/02/06 04:26:23;;;;;;;148.60;62.10;;;;;;;-4.62;85.30;102539.34;106506;1263;25459;-60
2023/02/06 04:28:54;;;;;;;133.20;56.80;;;;;;;-4.61;85.33;102535.91;106529;1276;26785;-57
2023/02/06 04:31:25;;;;;;;122.90;56.10;;;;;;;-4.60;85.51;102537.73;106561;1263;22600;-61
2023/02/06 04:33:55;;;;;;;136.60;57.10;;;;;;;-4.59;85.35;102535.48;106616;1276;22568;-59
2023/02/06 04:36:26;;;;;;;136.20;58.70;;;;;;;-4.58;85.56;102540.36;106602;1276;22616;-60
2023/02/06 04:38:57;;;;;;;132.20;58.10;;;;;;;-4.57;85.47;102536.36;106544;1275;24244;-60
2023/02/06 04:41:28;;;;;;;137.70;58.50;;;;;;;-4.57;85.47;102525.10;106602;1276;22698;-57
2023/02/06 04:43:59;;;;;;;122.70;51.80;;;;;;;-4.55;85.49;102526.18;106573;1273;24442;-62
2023/02/06 04:46:30;;;;;;;117.20;54.10;;;;;;;-4.52;85.63;102536.73;106565;1266;22753;-58
2023/02/06 04:49:01;;;;;;;120.50;53.10;;;;;;;-4.52;85.61;102538.19;106566;1275;24695;-61
2023/02/06 04:51:32;;;;;;;114.50;52.80;;;;;;;-4.52;85.52;102536.28;106564;1270;24246;-60
2023/02/06 04:54:04;;;;;;;122.30;50.30;;;;;;;-4.53;85.49;102544.27;106599;1257;25588;-62
2023/02/06 04:56:35;;;;;;;118.10;51.20;;;;;;;-4.52;85.62;102539.02;106700;1263;25410;-60
2023/02/06 04:59:06;;;;;;;134.60;55.70;;;;;;;-4.50;85.78;102537.70;106625;1276;24364;-61
2023/02/06 05:01:37;;;;;;;143.60;58.90;;;;;;;-4.49;85.79;102530.81;106660;1276;22604;-61
2023/02/06 05:04:08;;;;;;;154.50;62.50;;;;;;;-4.49;85.82;102528.27;106678;1275;24194;-59
2023/02/06 05:06:39;;;;;;;142.70;60.60;;;;;;;-4.47;85.82;102527.72;106623;1268;22642;-62
2023/02/06 05:09:10;;;;;;;153.00;64.90;;;;;;;-4.46;85.89;102522.61;106504;1275;22812;-62
2023/02/06 05:11:42;;;;;;;147.10;65.60;;;;;;;-4.46;85.80;102521.45;106469;1269;22584;-59
2023/02/06 05:14:13;;;;;;;140.40;61.10;;;;;;;-4.43;85.91;102517.90;106570;1270;25677;-61
2023/02/06 05:16:44;;;;;;;136.90;58.50;;;;;;;-4.43;85.78;102518.14;106538;1276;23137;-59
2023/02/06 05:19:14;;;;;;;136.90;56.80;;;;;;;-4.43;85.74;102520.17;106522;1259;22790;-60
2023/02/06 05:21:45;;;;;;;125.60;55.60;;;;;;;-4.43;85.85;102520.79;106491;1273;22624;-59
2023/02/06 05:24:17;;;;;;;127.40;58.60;;;;;;;-4.42;85.92;102520.97;106525;1269;22755;-61
2023/02/06 05:26:47;;;;;;;134.80;54.10;;;;;;;-4.41;85.89;102519.97;106675;1269;22695;-62
2023/02/06 05:29:18;;;;;;;124.10;53.50;;;;;;;-4.40;85.93;102524.89;106517;1276;22666;-60
2023/02/06 05:31:49;;;;;;;114.50;49.20;;;;;;;-4.40;86.02;102529.02;106576;1276;22571;-60
2023/02/06 05:34:21;;;;;;;119.40;52.40;;;;;;;-4.40;86.09;102526.40;106641;1276;22742;-61
2023/02/06 05:36:52;;;;;;;112.10;46.90;;;;;;;-4.38;86.03;102532.61;106703;1275;22753;-61
2023/02/06 05:39:23;;;;;;;126.00;54.50;;;;;;;-4.38;86.02;102535.38;106725;1275;22603;-58
2023/02/06 05:41:55;;;;;;;127.90;54.00;;;;;;;-4.40;86.04;102535.67;106767;1274;24225;-58
2023/02/06 05:44:28;;;;;;;122.90;54.80;;;;;;;-4.40;86.02;102542.66;106995;1276;22646;-59
2023/02/06 05:46:59;;;;;;;124.00;56.60;;;;;;;-4.41;86.06;102542.54;106823;1276;24286;-62
2023/02/06 05:49:30;;;;;;;121.80;56.00;;;;;;;-4.41;86.15;102544.98;106562;1274;24740;-60
2023/02/06 05:52:01;;;;;;;119.90;53.70;;;;;;;-4.41;86.12;102548.09;106540;1271;24346;-62
2023/02/06 05:54:32;;;;;;;119.20;52.50;;;;;;;-4.40;86.20;102559.46;106711;1276;24265;-60
2023/02/06 05:57:03;;;;;;;142.10;59.20;;;;;;;-4.40;86.30;102563.48;106505;1273;24622;-59
2023/02/06 05:59:34;;;;;;;127.00;56.70;;;;;;;-4.39;86.34;102560.47;106452;1272;24243;-59
2023/02/06 06:02:06;;;;;;;126.00;57.10;;;;;;;-4.37;86.36;102553.52;106559;1277;25498;-59
2023/02/06 06:04:37;;;;;;;119.30;52.20;;;;;;;-4.37;86.46;102555.58;106613;1276;24221;-60
2023/02/06 06:07:08;;;;;;;114.20;50.20;;;;;;;-4.38;86.53;102554.20;106454;1259;23276;-61
2023/02/06 06:09:39;;;;;;;112.80;48.80;;;;;;;-4.40;86.58;102553.89;106655;1276;22595;-60
2023/02/06 06:12:10;;;;;;;112.40;48.30;;;;;;;-4.41;86.67;102557.73;106845;1270;24280;-60
2023/02/06 06:14:41;;;;;;;117.20;51.80;;;;;;;-4.40;86.71;102555.14;106541;1270;22582;-60
2023/02/06 06:17:12;;;;;;;116.80;50.00;;;;;;;-4.37;86.74;102544.75;106549;1264;22632;-59
2023/02/06 06:19:43;;;;;;;113.60;49.50;;;;;;;-4.34;86.72;102537.56;106715;1276;22980;-60
2023/02/06 06:22:14;;;;;;;112.80;46.90;;;;;;;-4.33;86.69;102531.85;106521;1276;22601;-59
2023/02/06 06:24:45;;;;;;;109.70;46.10;;;;;;;-4.32;86.74;102528.86;106614;1263;22835;-59
2023/02/06 06:27:16;;;;;;;106.40;49.30;;;;;;;-4.32;86.74;102524.42;106534;1274;24218;-60
2023/02/06 06:29:47;;;;;;;109.90;48.10;;;;;;;-4.30;86.77;102528.16;106669;1258;22808;-60
2023/02/06 06:32:19;;;;;;;113.40;50.50;;;;;;;-4.29;86.80;102526.19;106663;1276;22820;-60
2023/02/06 06:34:50;;;;;;;119.90;50.80;;;;;;;-4.26;86.98;102525.84;106748;1276;26681;-60
2023/02/06 06:37:21;;;;;;;111.50;48.60;;;;;;;-4.24;86.92;102519.92;106547;1259;22984;-59
2023/02/06 06:39:52;;;;;;;111.20;46.70;;;;;;;-4.23;87.01;102517.16;106511;1271;25491;-59
2023/02/06 06:42:23;;;;;;;105.80;45.40;;;;;;;-4.22;86.99;102519.32;106525;1270;22584;-58
2023/02/06 06:44:54;;;;;;;110.40;47.50;;;;;;;-4.21;87.01;102523.48;106483;1275;22718;-59
2023/02/06 06:47:25;;;;;;;103.20;46.30;;;;;;;-4.18;87.15;102530.30;106510;1270;24233;-59
2023/02/06 06:49:56;;;;;;;103.70;45.20;;;;;;;-4.15;87.14;102527.33;106517;1257;24245;-60
2023/02/06 06:52:27;;;;;;;107.10;45.50;;;;;;;-4.13;87.10;102527.65;106526;1262;22665;-60
2023/02/06 06:54:58;;;;;;;131.60;62.30;;;;;;;-4.12;87.22;102530.20;106508;1264;27984;-61
2023/02/06 06:57:32;;;;;;;136.60;64.10;;;;;;;-4.09;87.18;102529.77;106489;1276;22726;-59
2023/02/06 07:00:03;;;;;;;126.20;62.40;;;;;;;-4.05;87.24;102539.04;106585;1254;22753;-59
2023/02/06 07:02:34;;;;;;;120.10;58.50;;;;;;;-4.04;87.27;102547.99;106668;1273;24344;-60
2023/02/06 07:05:06;;;;;;;115.60;55.40;;;;;;;-4.03;87.19;102554.36;106551;1276;22545;-61
2023/02/06 07:07:38;;;;;;;153.40;70.70;;;;;;;-4.01;87.36;102557.62;106891;1276;23505;-59
2023/02/06 07:10:11;;;;;;;274.40;111.70;;;;;;;-4.00;87.35;102553.86;106674;1276;25474;-60
2023/02/06 07:12:42;;;;;;;330.80;133.70;;;;;;;-3.96;87.42;102551.31;106484;1272;24219;-58
2023/02/06 07:15:14;;;;;;;372.90;155.80;;;;;;;-3.91;87.41;102549.63;106512;1259;22731;-60
2023/02/06 07:17:45;;;;;;;379.20;146.30;;;;;;;-3.90;87.37;102555.21;106676;1276;22668;-59
2023/02/06 07:20:16;;;;;;;308.10;115.60;;;;;;;-3.88;87.43;102558.58;106534;1270;22692;-61
2023/02/06 07:22:49;;;;;;;262.00;106.10;;;;;;;-3.86;87.46;102564.13;106694;1271;22563;-59
2023/02/06 07:25:20;;;;;;;211.70;87.70;;;;;;;-3.85;87.44;102564.41;106562;1263;22639;-59
2023/02/06 07:27:51;;;;;;;208.40;87.90;;;;;;;-3.83;87.58;102567.05;106642;1267;22907;-61
2023/02/06 07:30:22;;;;;;;156.70;65.20;;;;;;;-3.81;87.56;102563.16;106466;1272;23202;-59
2023/02/06 07:32:53;;;;;;;118.70;53.00;;;;;;;-3.79;87.64;102564.17;106773;1270;24212;-60
2023/02/06 07:35:24;;;;;;;110.80;47.90;;;;;;;-3.77;87.75;102566.60;106493;1267;22948;-60
2023/02/06 07:37:56;;;;;;;100.60;42.10;;;;;;;-3.73;87.76;102574.72;106579;1276;22640;-59
2023/02/06 07:40:27;;;;;;;104.30;43.60;;;;;;;-3.71;87.64;102573.26;106753;1270;22593;-60
2023/02/06 07:42:58;;;;;;;93.00;43.00;;;;;;;-3.68;87.89;102572.51;106479;1276;26081;-59
2023/02/06 07:45:29;;;;;;;96.00;41.10;;;;;;;-3.65;88.13;102572.67;106700;1271;23162;-60
2023/02/06 07:48:00;;;;;;;89.60;40.40;;;;;;;-3.61;88.17;102577.66;106562;1276;25584;-59
2023/02/06 07:50:31;;;;;;;93.30;40.20;;;;;;;-3.57;88.05;102581.34;106535;1276;22803;-59
2023/02/06 07:53:02;;;;;;;88.40;38.70;;;;;;;-3.54;88.05;102585.98;106569;1274;28152;-59
2023/02/06 07:55:35;;;;;;;181.40;78.10;;;;;;;-3.51;87.96;102581.80;106544;1276;24394;-61
2023/02/06 07:58:06;;;;;;;134.80;59.50;;;;;;;-3.47;87.98;102583.80;106530;1255;25303;-60
2023/02/06 08:00:37;;;;;;;100.10;44.10;;;;;;;-3.42;88.01;102589.86;106510;1276;22604;-60
2023/02/06 08:03:09;;;;;;;89.10;37.70;;;;;;;-3.38;87.86;102585.34;106728;1270;25474;-61
2023/02/06 08:05:41;;;;;;;88.40;37.90;;;;;;;-3.36;87.72;102582.63;106600;1267;22565;-61
2023/02/06 08:08:12;;;;;;;93.40;38.00;;;;;;;-3.33;87.66;102586.16;106558;1276;26814;-58
2023/02/06 08:10:43;;;;;;;125.90;51.10;;;;;;;-3.31;87.64;102592.03;106521;1254;24376;-60
2023/02/06 08:13:14;;;;;;;111.50;47.40;;;;;;;-3.29;87.56;102596.71;106588;1267;22725;-60
2023/02/06 08:15:45;;;;;;;99.40;41.80;;;;;;;-3.26;87.75;102591.12;106492;1264;23257;-59
2023/02/06 08:18:16;;;;;;;95.70;42.00;;;;;;;-3.23;87.85;102591.73;106611;1273;22586;-59
2023/02/06 08:20:47;;;;;;;102.00;41.70;;;;;;;-3.20;87.96;102593.27;106596;1266;22620;-59
2023/02/06 08:23:18;;;;;;;109.60;46.20;;;;;;;-3.16;88.06;102595.17;106508;1270;25519;-60
2023/02/06 08:25:49;;;;;;;105.00;46.30;;;;;;;-3.13;88.10;102592.48;106470;1276;22570;-60
2023/02/06 08:28:20;;;;;;;95.70;42.00;;;;;;;-3.10;88.01;102591.98;106460;1274;25588;-60
2023/02/06 08:30:52;;;;;;;99.40;42.30;;;;;;;-3.07;88.04;102589.46;106479;1273;23027;-59
2023/02/06 08:33:23;;;;;;;90.80;38.90;;;;;;;-3.04;87.98;102590.54;106738;1276;22616;-60
2023/02/06 08:35:54;;;;;;;90.70;40.00;;;;;;;-3.00;88.10;102587.88;106564;1273;25397;-59
2023/02/06 08:38:25;;;;;;;88.60;38.30;;;;;;;-2.96;88.02;102586.86;106972;1270;22586;-61
2023/02/06 08:40:56;;;;;;;98.40;41.50;;;;;;;-2.93;87.67;102588.58;106607;1276;22607;-60
2023/02/06 08:43:28;;;;;;;89.90;36.40;;;;;;;-2.86;87.78;102587.63;106483;1271;24376;-61
2023/02/06 08:45:59;;;;;;;86.60;36.20;;;;;;;-2.83;87.84;102588.03;106555;1276;22859;-60
2023/02/06 08:48:30;;;;;;;85.90;36.00;;;;;;;-2.79;87.79;102580.98;106544;1274;22698;-59
2023/02/06 08:51:06;;;;;;;80.70;35.00;;;;;;;-2.75;87.73;102578.96;106481;1272;22593;-60
2023/02/06 08:53:37;;;;;;;99.30;38.30;;;;;;;-2.71;87.27;102575.90;106605;1276;22597;-59
2023/02/06 08:56:11;;;;;;;86.90;35.00;;;;;;;-2.67;87.12;102577.53;106553;1270;22743;-61
2023/02/06 08:58:42;;;;;;;90.10;39.30;;;;;;;-2.62;87.44;102576.39;106560;1276;22594;-60
2023/02/06 09:01:15;;;;;;;85.70;37.40;;;;;;;-2.56;87.17;102573.11;106461;1270;24254;-58
2023/02/06 09:03:47;;;;;;;82.70;34.90;;;;;;;-2.50;87.24;102573.98;106665;1262;22610;-61
2023/02/06 09:06:18;;;;;;;88.00;35.30;;;;;;;-2.41;87.51;102574.52;106615;1269;23060;-60
2023/02/06 09:08:49;;;;;;;80.20;32.50;;;;;;;-2.34;87.62;102572.43;106630;1274;22587;-59
2023/02/06 09:11:23;;;;;;;68.90;29.50;;;;;;;-2.28;87.61;102571.48;106635;1262;25599;-60
2023/02/06 09:13:56;;;;;;;85.90;34.00;;;;;;;-2.23;87.32;102571.14;106526;1264;24300;-59
2023/02/06 09:16:32;;;;;;;75.00;33.30;;;;;;;-2.17;87.22;102571.90;106803;1269;25126;-59
2023/02/06 09:19:03;;;;;;;77.20;29.10;;;;;;;-2.12;87.05;102576.55;106616;1262;22604;-60
2023/02/06 09:21:35;;;;;;;71.60;28.60;;;;;;;-2.06;86.82;102576.11;106567;1273;22652;-59
2023/02/06 09:24:08;;;;;;;67.70;30.50;;;;;;;-2.02;86.78;102581.89;106665;1276;22632;-62
2023/02/06 09:26:41;;;;;;;63.90;26.70;;;;;;;-1.98;86.53;102587.35;106622;1276;24351;-60
2023/02/06 09:29:13;;;;;;;66.80;26.80;;;;;;;-1.97;85.76;102589.09;106626;1269;22591;-60
2023/02/06 09:31:44;;;;;;;65.30;28.50;;;;;;;-1.95;85.80;102586.92;106694;1276;22994;-58
2023/02/06 09:34:16;;;;;;;70.80;28.60;;;;;;;-1.91;85.92;102594.11;106532;1273;22590;-60
2023/02/06 09:36:47;;;;;;;61.20;25.60;;;;;;;-1.86;85.83;102589.68;106581;1276;22608;-60
2023/02/06 09:39:17;;;;;;;62.40;24.50;;;;;;;-1.80;85.71;102592.77;106585;1270;22672;-59
2023/02/06 09:41:52;;;;;;;63.60;26.70;;;;;;;-1.74;85.57;102587.90;106544;1276;22663;-61
2023/02/06 09:44:30;;;;;;;59.20;24.70;;;;;;;-1.67;85.44;102586.33;106567;1269;22597;-59
2023/02/06 09:47:06;;;;;;;60.60;25.20;;;;;;;-1.67;84.58;102586.73;106478;1276;24245;-61
2023/02/06 09:49:43;;;;;;;61.40;24.40;;;;;;;-1.66;84.65;102588.80;106595;1276;25500;-62
2023/02/06 09:52:39;;;;;;;66.00;27.90;;;;;;;-1.62;84.72;102586.04;106621;1262;22557;-60
2023/02/06 09:55:19;;;;;;;70.40;28.40;;;;;;;-1.55;84.89;102584.93;106449;1262;22667;-61
2023/02/06 09:57:56;;;;;;;65.20;27.50;;;;;;;-1.50;84.74;102583.21;106552;1273;25633;-60
2023/02/06 10:00:40;;;;;;;68.40;28.30;;;;;;;-1.46;84.88;102582.27;106582;1262;22693;-60
2023/02/06 10:03:30;;;;;;;66.70;27.70;;;;;;;-1.39;85.01;102583.19;106701;1273;22534;-56
2023/02/06 10:06:12;;;;;;;66.60;26.30;;;;;;;-1.31;85.19;102583.63;106482;1276;24194;-61
2023/02/06 10:08:48;;;;;;;69.40;27.10;;;;;;;-1.24;84.84;102584.16;106609;1273;24365;-59
2023/02/06 10:11:28;;;;;;;53.70;21.10;;;;;;;-1.20;84.67;102585.02;106551;1270;22592;-61
2023/02/06 10:14:04;;;;;;;49.30;19.20;;;;;;;-1.15;84.01;102583.52;106504;1271;24265;-59
2023/02/06 10:16:39;;;;;;;46.80;18.50;;;;;;;-1.10;83.67;102585.87;106768;1276;22612;-59
2023/02/06 10:19:21;;;;;;;46.90;17.60;;;;;;;-1.04;83.64;102577.21;106602;1270;26791;-57
2023/02/06 10:21:59;;;;;;;48.60;17.40;;;;;;;-1.01;82.80;102574.73;106428;1262;22589;-61
2023/02/06 10:24:37;;;;;;;39.60;14.40;;;;;;;-1.00;82.54;102572.66;106500;1270;22691;-60
2023/02/06 10:27:13;;;;;;;39.90;13.20;;;;;;;-0.95;82.85;102570.04;106597;1270;22538;-61
2023/02/06 10:29:46;;;;;;;42.70;15.50;;;;;;;-0.90;82.51;102573.61;106584;1262;25305;-60
2023/02/06 10:32:32;;;;;;;41.60;16.30;;;;;;;-0.90;82.19;102574.93;106488;1271;22503;-60
2023/02/06 10:35:19;;;;;;;49.70;15.60;;;;;;;-0.86;82.07;102579.14;106559;1276;23026;-60
2023/02/06 10:38:06;;;;;;;37.30;13.30;;;;;;;-0.82;81.92;102583.09;106441;1276;22535;-60
2023/02/06 10:40:45;;;;;;;27.80;7.90;;;;;;;-0.74;81.75;102580.86;106465;1276;22536;-62
2023/02/06 10:43:29;;;;;;;32.30;10.40;;;;;;;-0.74;80.88;102583.39;106519;1273;24338;-62
2023/02/06 10:46:19;;;;;;;31.10;9.90;;;;;;;-0.71;81.35;102585.77;106538;1258;24373;-62
2023/02/06 10:48:57;;;;;;;30.20;11.60;;;;;;;-0.67;81.08;102583.21;106538;1270;22531;-58
2023/02/06 10:51:34;;;;;;;31.70;9.90;;;;;;;-0.64;80.81;102580.02;106557;1274;25436;-61
2023/02/06 10:54:15;;;;;;;27.10;9.10;;;;;;;-0.63;80.24;102578.23;106520;1271;23440;-61
2023/02/06 10:56:48;;;;;;;27.50;9.30;;;;;;;-0.61;80.06;102576.02;106506;1272;22583;-60
2023/02/06 10:59:26;;;;;;;35.40;9.90;;;;;;;-0.61;80.59;102570.53;106506;1262;24196;-60
2023/02/06 11:02:13;;;;;;;29.60;9.10;;;;;;;-0.61;79.50;102569.69;106510;1276;22548;-62
2023/02/06 11:04:51;;;;;;;30.20;9.00;;;;;;;-0.64;80.16;102567.16;106648;1276;25600;-62
2023/02/06 11:07:28;;;;;;;32.10;10.40;;;;;;;-0.63;79.91;102562.48;106565;1270;25239;-59
2023/02/06 11:09:59;;;;;;;27.90;8.90;;;;;;;-0.65;79.50;102562.91;106914;1271;23383;-61
2023/02/06 11:12:34;;;;;;;30.60;9.40;;;;;;;-0.64;79.81;102562.92;106554;1270;24248;-60
2023/02/06 11:15:16;;;;;;;27.70;9.30;;;;;;;-0.62;79.69;102560.89;106579;1276;25484;-62
2023/02/06 11:17:47;;;;;;;34.30;11.00;;;;;;;-0.59;80.01;102564.95;106535;1260;22612;-61
2023/02/06 11:20:22;;;;;;;43.20;17.20;;;;;;;-0.55;80.47;102563.98;106514;1262;22528;-60
2023/02/06 11:22:53;;;;;;;46.90;16.70;;;;;;;-0.53;79.82;102565.05;106575;1271;22665;-62
2023/02/06 11:25:28;;;;;;;37.80;13.80;;;;;;;-0.51;79.97;102560.56;106433;1264;22595;-60